sensor_id;sensor_type;location;lat;lon;timestamp;pressure;altitude;pressure_sealevel;temperature;humidity
66176;BME280;52977;44.816;20.538;2022-07-23T00:01:01;99665.00;;;28.87;35.06
66176;BME280;52977;44.816;20.538;2022-07-23T00:03:26;99644.66;;;28.70;35.05
66176;BME280;52977;44.816;20.538;2022-07-23T00:05:52;99671.06;;;28.86;35.12
66176;BME280;52977;44.816;20.538;2022-07-23T00:08:18;99672.97;;;28.89;34.96
66176;BME280;52977;44.816;20.538;2022-07-23T00:10:43;99649.63;;;28.79;33.88
66176;BME280;52977;44.816;20.538;2022-07-23T00:13:09;99665.00;;;29.00;33.36
66176;BME280;52977;44.816;20.538;2022-07-23T00:15:35;99663.19;;;29.06;32.54
66176;BME280;52977;44.816;20.538;2022-07-23T00:18:00;99672.84;;;29.18;31.75
66176;BME280;52977;44.816;20.538;2022-07-23T00:20:26;99677.47;;;29.25;31.53
66176;BME280;52977;44.816;20.538;2022-07-23T00:22:54;99677.38;;;29.28;31.17
66176;BME280;52977;44.816;20.538;2022-07-23T00:25:21;99675.22;;;29.32;30.90
66176;BME280;52977;44.816;20.538;2022-07-23T00:27:47;99650.03;;;29.16;30.91
66176;BME280;52977;44.816;20.538;2022-07-23T00:30:14;99670.63;;;29.26;30.94
66176;BME280;52977;44.816;20.538;2022-07-23T00:32:54;99678.34;;;29.35;31.33
66176;BME280;52977;44.816;20.538;2022-07-23T00:35:23;99678.50;;;29.31;32.30
66176;BME280;52977;44.816;20.538;2022-07-23T00:37:50;99679.41;;;29.28;32.98
66176;BME280;52977;44.816;20.538;2022-07-23T00:40:15;99675.31;;;29.16;32.88
66176;BME280;52977;44.816;20.538;2022-07-23T00:42:41;99682.06;;;29.19;33.17
66176;BME280;52977;44.816;20.538;2022-07-23T00:45:07;99659.03;;;28.72;33.69
66176;BME280;52977;44.816;20.538;2022-07-23T00:47:35;99681.28;;;28.67;34.11
66176;BME280;52977;44.816;20.538;2022-07-23T00:50:03;99680.28;;;28.73;34.64
66176;BME280;52977;44.816;20.538;2022-07-23T00:52:29;99683.91;;;28.44;35.62
66176;BME280;52977;44.816;20.538;2022-07-23T00:54:55;99688.59;;;28.35;36.31
66176;BME280;52977;44.816;20.538;2022-07-23T00:57:21;99685.34;;;28.36;36.10
66176;BME280;52977;44.816;20.538;2022-07-23T00:59:46;99678.13;;;28.22;36.18
66176;BME280;52977;44.816;20.538;2022-07-23T01:02:12;99683.88;;;28.32;36.28
66176;BME280;52977;44.816;20.538;2022-07-23T01:04:37;99681.09;;;28.44;36.41
66176;BME280;52977;44.816;20.538;2022-07-23T01:07:03;99677.84;;;28.46;36.63
66176;BME280;52977;44.816;20.538;2022-07-23T01:09:30;99670.88;;;28.51;37.02
66176;BME280;52977;44.816;20.538;2022-07-23T01:11:57;99681.41;;;28.46;37.05
66176;BME280;52977;44.816;20.538;2022-07-23T01:14:22;99653.31;;;28.21;37.64
66176;BME280;52977;44.816;20.538;2022-07-23T01:16:49;99694.69;;;28.46;37.77
66176;BME280;52977;44.816;20.538;2022-07-23T01:19:16;99692.09;;;28.09;38.81
66176;BME280;52977;44.816;20.538;2022-07-23T01:21:45;99690.28;;;28.03;38.94
66176;BME280;52977;44.816;20.538;2022-07-23T01:24:12;99701.06;;;27.88;39.74
66176;BME280;52977;44.816;20.538;2022-07-23T01:26:44;99669.22;;;27.65;39.84
66176;BME280;52977;44.816;20.538;2022-07-23T01:29:11;99702.03;;;27.81;39.88
66176;BME280;52977;44.816;20.538;2022-07-23T01:31:37;99672.88;;;27.78;39.52
66176;BME280;52977;44.816;20.538;2022-07-23T01:34:03;99693.53;;;27.85;39.65
66176;BME280;52977;44.816;20.538;2022-07-23T01:36:30;99693.81;;;27.74;39.96
66176;BME280;52977;44.816;20.538;2022-07-23T01:38:59;99668.72;;;27.37;43.32
66176;BME280;52977;44.816;20.538;2022-07-23T01:41:24;99685.59;;;27.34;43.66
66176;BME280;52977;44.816;20.538;2022-07-23T01:43:50;99675.09;;;27.38;43.38
66176;BME280;52977;44.816;20.538;2022-07-23T01:46:17;99697.50;;;27.38;43.76
66176;BME280;52977;44.816;20.538;2022-07-23T01:48:46;99691.72;;;27.28;44.14
66176;BME280;52977;44.816;20.538;2022-07-23T01:51:37;99688.94;;;27.45;44.20
66176;BME280;52977;44.816;20.538;2022-07-23T01:54:23;99695.66;;;27.48;44.93
66176;BME280;52977;44.816;20.538;2022-07-23T01:56:49;99655.56;;;27.18;44.87
66176;BME280;52977;44.816;20.538;2022-07-23T01:59:15;99700.50;;;27.47;45.23
66176;BME280;52977;44.816;20.538;2022-07-23T02:01:40;99698.75;;;27.37;45.62
66176;BME280;52977;44.816;20.538;2022-07-23T02:04:06;99697.00;;;27.43;45.18
66176;BME280;52977;44.816;20.538;2022-07-23T02:06:32;99697.50;;;27.38;45.54
66176;BME280;52977;44.816;20.538;2022-07-23T02:08:58;99689.00;;;27.25;46.41
66176;BME280;52977;44.816;20.538;2022-07-23T02:11:23;99697.41;;;27.25;46.42
66176;BME280;52977;44.816;20.538;2022-07-23T02:13:49;99691.91;;;27.38;45.80
66176;BME280;52977;44.816;20.538;2022-07-23T02:16:14;99691.06;;;27.41;45.91
66176;BME280;52977;44.816;20.538;2022-07-23T02:18:40;99695.00;;;27.43;45.76
66176;BME280;52977;44.816;20.538;2022-07-23T02:21:06;99685.88;;;27.39;45.79
66176;BME280;52977;44.816;20.538;2022-07-23T02:23:43;99685.19;;;27.35;45.79
66176;BME280;52977;44.816;20.538;2022-07-23T02:26:09;99685.53;;;27.37;45.09
66176;BME280;52977;44.816;20.538;2022-07-23T02:28:35;99685.53;;;27.37;44.28
66176;BME280;52977;44.816;20.538;2022-07-23T02:31:01;99688.13;;;27.44;44.02
66176;BME280;52977;44.816;20.538;2022-07-23T02:33:27;99689.03;;;27.58;43.46
66176;BME280;52977;44.816;20.538;2022-07-23T02:35:53;99672.03;;;27.49;43.09
66176;BME280;52977;44.816;20.538;2022-07-23T02:38:20;99663.72;;;27.45;42.71
66176;BME280;52977;44.816;20.538;2022-07-23T02:40:47;99686.22;;;27.58;42.19
66176;BME280;52977;44.816;20.538;2022-07-23T02:43:12;99680.81;;;27.51;41.37
66176;BME280;52977;44.816;20.538;2022-07-23T02:45:38;99681.06;;;27.56;40.50
66176;BME280;52977;44.816;20.538;2022-07-23T02:48:04;99677.03;;;27.57;40.30
66176;BME280;52977;44.816;20.538;2022-07-23T02:50:30;99680.50;;;27.61;40.33
66176;BME280;52977;44.816;20.538;2022-07-23T02:53:02;99642.28;;;27.38;39.99
66176;BME280;52977;44.816;20.538;2022-07-23T02:55:28;99682.19;;;27.59;39.73
66176;BME280;52977;44.816;20.538;2022-07-23T02:57:54;99681.75;;;27.60;40.03
66176;BME280;52977;44.816;20.538;2022-07-23T03:00:19;99657.75;;;27.43;39.94
66176;BME280;52977;44.816;20.538;2022-07-23T03:02:45;99681.84;;;27.57;39.92
66176;BME280;52977;44.816;20.538;2022-07-23T03:05:10;99664.44;;;27.49;40.04
66176;BME280;52977;44.816;20.538;2022-07-23T03:07:38;99682.72;;;27.54;39.89
66176;BME280;52977;44.816;20.538;2022-07-23T03:10:04;99689.53;;;27.53;39.44
66176;BME280;52977;44.816;20.538;2022-07-23T03:12:29;99677.19;;;27.50;39.12
66176;BME280;52977;44.816;20.538;2022-07-23T03:14:55;99681.56;;;27.51;38.32
66176;BME280;52977;44.816;20.538;2022-07-23T03:17:21;99684.31;;;27.55;38.51
66176;BME280;52977;44.816;20.538;2022-07-23T03:19:46;99682.72;;;27.54;38.54
66176;BME280;52977;44.816;20.538;2022-07-23T03:22:12;99681.56;;;27.51;38.20
66176;BME280;52977;44.816;20.538;2022-07-23T03:24:40;99684.63;;;27.57;37.94
66176;BME280;52977;44.816;20.538;2022-07-23T03:27:25;99693.84;;;27.57;37.72
66176;BME280;52977;44.816;20.538;2022-07-23T03:29:53;99693.41;;;27.59;37.82
66176;BME280;52977;44.816;20.538;2022-07-23T03:32:20;99700.13;;;27.61;37.62
66176;BME280;52977;44.816;20.538;2022-07-23T03:34:45;99698.13;;;27.62;37.38
66176;BME280;52977;44.816;20.538;2022-07-23T03:37:12;99702.53;;;27.63;37.68
66176;BME280;52977;44.816;20.538;2022-07-23T03:39:38;99670.56;;;27.44;37.29
66176;BME280;52977;44.816;20.538;2022-07-23T03:42:04;99703.56;;;27.69;37.49
66176;BME280;52977;44.816;20.538;2022-07-23T03:44:30;99701.06;;;27.71;37.24
66176;BME280;52977;44.816;20.538;2022-07-23T03:46:56;99701.06;;;27.71;37.29
66176;BME280;52977;44.816;20.538;2022-07-23T03:49:21;99695.13;;;27.69;37.25
66176;BME280;52977;44.816;20.538;2022-07-23T03:51:48;99693.75;;;27.61;37.37
66176;BME280;52977;44.816;20.538;2022-07-23T03:54:13;99700.41;;;27.67;37.19
66176;BME280;52977;44.816;20.538;2022-07-23T03:56:39;99699.16;;;27.68;37.31
66176;BME280;52977;44.816;20.538;2022-07-23T03:59:05;99705.81;;;27.74;37.16
66176;BME280;52977;44.816;20.538;2022-07-23T04:01:31;99699.84;;;27.72;36.77
66176;BME280;52977;44.816;20.538;2022-07-23T04:03:57;99698.63;;;27.73;36.90
66176;BME280;52977;44.816;20.538;2022-07-23T04:06:24;99691.88;;;27.71;36.42
66176;BME280;52977;44.816;20.538;2022-07-23T04:08:50;99699.53;;;27.70;36.21
66176;BME280;52977;44.816;20.538;2022-07-23T04:11:16;99681.75;;;27.60;37.35
66176;BME280;52977;44.816;20.538;2022-07-23T04:13:42;99699.41;;;27.74;37.85
66176;BME280;52977;44.816;20.538;2022-07-23T04:16:08;99679.41;;;27.59;37.99
66176;BME280;52977;44.816;20.538;2022-07-23T04:18:33;99691.44;;;27.72;37.61
66176;BME280;52977;44.816;20.538;2022-07-23T04:21:11;99684.44;;;27.64;37.25
66176;BME280;52977;44.816;20.538;2022-07-23T04:23:40;99684.69;;;27.70;37.35
66176;BME280;52977;44.816;20.538;2022-07-23T04:26:06;99680.09;;;27.63;37.61
66176;BME280;52977;44.816;20.538;2022-07-23T04:28:32;99689.88;;;27.71;37.93
66176;BME280;52977;44.816;20.538;2022-07-23T04:31:01;99680.94;;;27.60;37.91
66176;BME280;52977;44.816;20.538;2022-07-23T04:33:28;99695.84;;;27.73;37.60
66176;BME280;52977;44.816;20.538;2022-07-23T04:35:56;99692.59;;;27.75;37.40
66176;BME280;52977;44.816;20.538;2022-07-23T04:38:22;99690.47;;;27.79;37.55
66176;BME280;52977;44.816;20.538;2022-07-23T04:40:51;99676.66;;;27.72;37.77
66176;BME280;52977;44.816;20.538;2022-07-23T04:43:16;99695.91;;;27.86;37.79
66176;BME280;52977;44.816;20.538;2022-07-23T04:45:45;99675.06;;;27.71;37.87
66176;BME280;52977;44.816;20.538;2022-07-23T04:48:11;99695.38;;;27.91;37.94
66176;BME280;52977;44.816;20.538;2022-07-23T04:50:37;99677.16;;;27.83;37.71
66176;BME280;52977;44.816;20.538;2022-07-23T04:53:04;99669.19;;;27.82;37.82
66176;BME280;52977;44.816;20.538;2022-07-23T04:55:30;99666.38;;;27.82;38.07
66176;BME280;52977;44.816;20.538;2022-07-23T04:57:57;99699.47;;;28.03;37.98
66176;BME280;52977;44.816;20.538;2022-07-23T05:00:22;99688.59;;;28.05;38.70
66176;BME280;52977;44.816;20.538;2022-07-23T05:02:48;99682.56;;;28.07;38.55
66176;BME280;52977;44.816;20.538;2022-07-23T05:05:15;99684.91;;;28.08;38.52
66176;BME280;52977;44.816;20.538;2022-07-23T05:07:43;99690.88;;;28.10;38.49
66176;BME280;52977;44.816;20.538;2022-07-23T05:10:09;99685.69;;;28.09;39.27
66176;BME280;52977;44.816;20.538;2022-07-23T05:12:35;99698.94;;;28.08;41.13
66176;BME280;52977;44.816;20.538;2022-07-23T05:15:00;99680.00;;;27.96;43.01
66176;BME280;52977;44.816;20.538;2022-07-23T05:17:26;99702.38;;;28.00;49.16
66176;BME280;52977;44.816;20.538;2022-07-23T05:19:52;99701.50;;;28.03;49.56
66176;BME280;52977;44.816;20.538;2022-07-23T05:22:18;99704.38;;;27.99;53.57
66176;BME280;52977;44.816;20.538;2022-07-23T05:24:44;99714.63;;;27.89;56.24
66176;BME280;52977;44.816;20.538;2022-07-23T05:27:10;99712.47;;;27.64;61.22
66176;BME280;52977;44.816;20.538;2022-07-23T05:29:36;99712.59;;;27.44;60.38
66176;BME280;52977;44.816;20.538;2022-07-23T05:32:02;99709.88;;;27.40;62.86
66176;BME280;52977;44.816;20.538;2022-07-23T05:34:29;99713.22;;;27.35;64.86
66176;BME280;52977;44.816;20.538;2022-07-23T05:36:56;99715.28;;;27.31;66.23
66176;BME280;52977;44.816;20.538;2022-07-23T05:39:22;99720.50;;;27.29;66.15
66176;BME280;52977;44.816;20.538;2022-07-23T05:41:48;99708.78;;;27.18;69.87
66176;BME280;52977;44.816;20.538;2022-07-23T05:44:14;99726.56;;;27.27;69.67
66176;BME280;52977;44.816;20.538;2022-07-23T05:46:42;99719.84;;;27.41;69.18
66176;BME280;52977;44.816;20.538;2022-07-23T05:49:12;99720.63;;;27.42;69.65
66176;BME280;52977;44.816;20.538;2022-07-23T05:51:56;99726.78;;;27.53;69.30
66176;BME280;52977;44.816;20.538;2022-07-23T05:54:35;99717.69;;;27.49;69.29
66176;BME280;52977;44.816;20.538;2022-07-23T05:57:02;99715.47;;;27.57;68.60
66176;BME280;52977;44.816;20.538;2022-07-23T05:59:28;99730.88;;;27.65;69.30
66176;BME280;52977;44.816;20.538;2022-07-23T06:01:54;99724.25;;;27.59;68.39
66176;BME280;52977;44.816;20.538;2022-07-23T06:04:19;99725.81;;;27.60;68.85
66176;BME280;52977;44.816;20.538;2022-07-23T06:06:59;99697.50;;;27.38;68.70
66176;BME280;52977;44.816;20.538;2022-07-23T06:09:27;99728.34;;;27.71;67.48
66176;BME280;52977;44.816;20.538;2022-07-23T06:11:53;99707.25;;;27.66;66.70
66176;BME280;52977;44.816;20.538;2022-07-23T06:14:21;99707.25;;;27.66;65.95
66176;BME280;52977;44.816;20.538;2022-07-23T06:16:51;99730.19;;;27.77;65.46
66176;BME280;52977;44.816;20.538;2022-07-23T06:19:17;99726.94;;;27.79;64.24
66176;BME280;52977;44.816;20.538;2022-07-23T06:21:43;99721.66;;;27.81;65.31
66176;BME280;52977;44.816;20.538;2022-07-23T06:24:10;99729.22;;;27.84;64.82
66176;BME280;52977;44.816;20.538;2022-07-23T06:26:35;99720.69;;;27.88;64.44
66176;BME280;52977;44.816;20.538;2022-07-23T06:29:01;99726.66;;;27.90;65.84
66176;BME280;52977;44.816;20.538;2022-07-23T06:31:27;99719.91;;;27.87;65.54
66176;BME280;52977;44.816;20.538;2022-07-23T06:33:52;99722.97;;;27.93;64.99
66176;BME280;52977;44.816;20.538;2022-07-23T06:36:18;99730.16;;;27.94;65.64
66176;BME280;52977;44.816;20.538;2022-07-23T06:38:44;99727.34;;;27.94;64.69
66176;BME280;52977;44.816;20.538;2022-07-23T06:41:09;99725.59;;;27.84;65.12
66176;BME280;52977;44.816;20.538;2022-07-23T06:43:35;99728.91;;;27.95;63.65
66176;BME280;52977;44.816;20.538;2022-07-23T06:46:01;99730.25;;;27.90;61.76
66176;BME280;52977;44.816;20.538;2022-07-23T06:48:26;99737.25;;;27.82;59.72
66176;BME280;52977;44.816;20.538;2022-07-23T06:50:53;99737.25;;;27.82;55.95
66176;BME280;52977;44.816;20.538;2022-07-23T06:53:23;99742.97;;;27.78;56.54
66176;BME280;52977;44.816;20.538;2022-07-23T06:55:49;99737.19;;;27.86;55.37
66176;BME280;52977;44.816;20.538;2022-07-23T06:58:14;99745.06;;;27.91;58.10
66176;BME280;52977;44.816;20.538;2022-07-23T07:00:40;99719.28;;;27.79;57.94
66176;BME280;52977;44.816;20.538;2022-07-23T07:03:06;99750.13;;;27.96;60.01
66176;BME280;52977;44.816;20.538;2022-07-23T07:05:33;99746.81;;;28.01;57.29
66176;BME280;52977;44.816;20.538;2022-07-23T07:07:59;99722.47;;;27.82;57.72
66176;BME280;52977;44.816;20.538;2022-07-23T07:10:24;99742.59;;;27.93;59.54
66176;BME280;52977;44.816;20.538;2022-07-23T07:12:50;99741.72;;;27.96;59.15
66176;BME280;52977;44.816;20.538;2022-07-23T07:15:15;99731.31;;;27.96;57.23
66176;BME280;52977;44.816;20.538;2022-07-23T07:17:41;99737.88;;;28.06;57.30
66176;BME280;52977;44.816;20.538;2022-07-23T07:20:08;99744.97;;;28.11;57.40
66176;BME280;52977;44.816;20.538;2022-07-23T07:22:33;99713.59;;;28.00;56.74
66176;BME280;52977;44.816;20.538;2022-07-23T07:24:59;99713.50;;;28.03;56.40
66176;BME280;52977;44.816;20.538;2022-07-23T07:27:25;99739.50;;;28.20;56.23
66176;BME280;52977;44.816;20.538;2022-07-23T07:29:51;99740.19;;;28.24;55.00
66176;BME280;52977;44.816;20.538;2022-07-23T07:32:16;99735.53;;;28.34;52.32
66176;BME280;52977;44.816;20.538;2022-07-23T07:34:42;99743.75;;;28.41;51.30
66176;BME280;52977;44.816;20.538;2022-07-23T07:37:07;99741.94;;;28.47;50.63
66176;BME280;52977;44.816;20.538;2022-07-23T07:39:33;99726.34;;;28.46;50.45
66176;BME280;52977;44.816;20.538;2022-07-23T07:41:59;99739.84;;;28.52;50.47
66176;BME280;52977;44.816;20.538;2022-07-23T07:44:25;99728.97;;;28.54;47.29
66176;BME280;52977;44.816;20.538;2022-07-23T07:46:50;99722.78;;;28.59;46.03
66176;BME280;52977;44.816;20.538;2022-07-23T07:49:16;99732.38;;;28.74;47.46
66176;BME280;52977;44.816;20.538;2022-07-23T07:51:45;99739.03;;;28.80;48.36
66176;BME280;52977;44.816;20.538;2022-07-23T07:54:13;99729.81;;;28.80;50.71
66176;BME280;52977;44.816;20.538;2022-07-23T07:56:39;99735.78;;;28.82;52.51
66176;BME280;52977;44.816;20.538;2022-07-23T07:59:05;99732.53;;;28.84;51.00
66176;BME280;52977;44.816;20.538;2022-07-23T08:01:31;99737.69;;;28.85;49.46
66176;BME280;52977;44.816;20.538;2022-07-23T08:03:57;99743.97;;;28.89;46.16
66176;BME280;52977;44.816;20.538;2022-07-23T08:06:26;99744.56;;;28.97;49.53
66176;BME280;52977;44.816;20.538;2022-07-23T08:08:51;99729.16;;;29.02;53.02
66176;BME280;52977;44.816;20.538;2022-07-23T08:11:17;99736.91;;;29.10;54.50
66176;BME280;52977;44.816;20.538;2022-07-23T08:13:42;99650.34;;;28.54;55.53
66176;BME280;52977;44.816;20.538;2022-07-23T08:16:10;99738.63;;;29.21;58.54
66176;BME280;52977;44.816;20.538;2022-07-23T08:18:36;99718.38;;;29.13;55.61
66176;BME280;52977;44.816;20.538;2022-07-23T08:21:02;99733.69;;;29.25;55.10
66176;BME280;52977;44.816;20.538;2022-07-23T08:23:29;99726.06;;;29.25;51.96
66176;BME280;52977;44.816;20.538;2022-07-23T08:25:55;99698.38;;;29.11;50.31
66176;BME280;52977;44.816;20.538;2022-07-23T08:28:22;99730.09;;;29.24;53.16
66176;BME280;52977;44.816;20.538;2022-07-23T08:30:48;99720.66;;;29.31;54.50
66176;BME280;52977;44.816;20.538;2022-07-23T08:33:18;99731.53;;;29.55;55.42
66176;BME280;52977;44.816;20.538;2022-07-23T08:35:50;99736.81;;;29.65;52.86
66176;BME280;52977;44.816;20.538;2022-07-23T08:38:22;99734.06;;;29.75;51.21
66176;BME280;52977;44.816;20.538;2022-07-23T08:40:50;99737.22;;;29.77;51.80
66176;BME280;52977;44.816;20.538;2022-07-23T08:43:21;99722.13;;;29.83;51.22
66176;BME280;52977;44.816;20.538;2022-07-23T08:45:49;99724.59;;;29.94;50.52
66176;BME280;52977;44.816;20.538;2022-07-23T08:48:23;99726.16;;;29.95;49.79
66176;BME280;52977;44.816;20.538;2022-07-23T08:50:52;99713.31;;;29.94;50.13
66176;BME280;52977;44.816;20.538;2022-07-23T08:53:21;99724.00;;;29.99;49.58
66176;BME280;52977;44.816;20.538;2022-07-23T08:55:48;99681.16;;;29.82;49.83
66176;BME280;52977;44.816;20.538;2022-07-23T08:58:15;99720.22;;;30.15;49.72
66176;BME280;52977;44.816;20.538;2022-07-23T09:00:41;99686.84;;;30.05;48.92
66176;BME280;52977;44.816;20.538;2022-07-23T09:03:06;99712.84;;;30.31;48.77
66176;BME280;52977;44.816;20.538;2022-07-23T09:05:32;99718.50;;;30.31;48.77
66176;BME280;52977;44.816;20.538;2022-07-23T09:08:13;99717.56;;;30.34;48.71
66176;BME280;52977;44.816;20.538;2022-07-23T09:10:58;99713.06;;;30.37;49.18
66176;BME280;52977;44.816;20.538;2022-07-23T09:13:26;99707.28;;;30.40;49.21
66176;BME280;52977;44.816;20.538;2022-07-23T09:15:53;99710.50;;;30.51;48.13
66176;BME280;52977;44.816;20.538;2022-07-23T09:21:13;99706.03;;;30.63;49.16
66176;BME280;52977;44.816;20.538;2022-07-23T09:34:16;99715.47;;;31.01;46.36
66176;BME280;52977;44.816;20.538;2022-07-23T09:36:43;99709.50;;;30.99;46.04
66176;BME280;52977;44.816;20.538;2022-07-23T09:39:09;99707.81;;;31.01;47.25
66176;BME280;52977;44.816;20.538;2022-07-23T09:41:42;99697.81;;;31.10;44.96
66176;BME280;52977;44.816;20.538;2022-07-23T09:46:38;99702.69;;;31.18;43.15
66176;BME280;52977;44.816;20.538;2022-07-23T09:49:17;99696.34;;;31.27;44.14
66176;BME280;52977;44.816;20.538;2022-07-23T09:51:48;99665.75;;;31.16;44.38
66176;BME280;52977;44.816;20.538;2022-07-23T09:54:22;99706.22;;;31.50;44.53
66176;BME280;52977;44.816;20.538;2022-07-23T09:56:54;99698.59;;;31.60;44.17
66176;BME280;52977;44.816;20.538;2022-07-23T09:59:26;99697.38;;;31.71;43.99
66176;BME280;52977;44.816;20.538;2022-07-23T10:01:55;99699.56;;;31.76;42.93
66176;BME280;52977;44.816;20.538;2022-07-23T10:04:23;99694.53;;;31.80;42.25
66176;BME280;52977;44.816;20.538;2022-07-23T10:06:57;99685.63;;;31.91;41.91
66176;BME280;52977;44.816;20.538;2022-07-23T10:09:52;99687.81;;;32.05;42.77
66176;BME280;52977;44.816;20.538;2022-07-23T10:12:43;99680.00;;;32.18;38.91
66176;BME280;52977;44.816;20.538;2022-07-23T10:15:14;99651.59;;;32.03;39.66
66176;BME280;52977;44.816;20.538;2022-07-23T10:17:40;99678.56;;;32.23;39.27
66176;BME280;52977;44.816;20.538;2022-07-23T10:20:06;99654.88;;;32.20;39.07
66176;BME280;52977;44.816;20.538;2022-07-23T10:23:00;99666.31;;;32.35;38.71
66176;BME280;52977;44.816;20.538;2022-07-23T10:25:45;99641.38;;;32.25;38.16
66176;BME280;52977;44.816;20.538;2022-07-23T10:28:40;99671.13;;;32.53;38.31
66176;BME280;52977;44.816;20.538;2022-07-23T10:31:12;99652.44;;;32.56;38.30
66176;BME280;52977;44.816;20.538;2022-07-23T10:33:50;99653.06;;;32.60;38.46
66176;BME280;52977;44.816;20.538;2022-07-23T10:39:24;99657.09;;;32.78;34.28
66176;BME280;52977;44.816;20.538;2022-07-23T10:41:51;99656.31;;;32.86;34.08
66176;BME280;52977;44.816;20.538;2022-07-23T10:44:20;99647.81;;;32.86;34.63
66176;BME280;52977;44.816;20.538;2022-07-23T10:47:03;99650.03;;;32.82;34.35
66176;BME280;52977;44.816;20.538;2022-07-23T10:49:48;99636.41;;;32.71;33.84
66176;BME280;52977;44.816;20.538;2022-07-23T10:57:09;99642.78;;;32.91;34.49
66176;BME280;52977;44.816;20.538;2022-07-23T11:00:14;99633.03;;;32.92;35.17
66176;BME280;52977;44.816;20.538;2022-07-23T11:02:46;99627.50;;;32.97;33.48
66176;BME280;52977;44.816;20.538;2022-07-23T11:05:20;99624.53;;;32.92;33.97
66176;BME280;52977;44.816;20.538;2022-07-23T11:10:37;99620.38;;;33.35;34.01
66176;BME280;52977;44.816;20.538;2022-07-23T11:26:56;99591.91;;;33.78;33.24
66176;BME280;52977;44.816;20.538;2022-07-23T11:32:17;99606.50;;;34.01;33.15
66176;BME280;52977;44.816;20.538;2022-07-23T11:34:45;99598.47;;;33.99;33.33
66176;BME280;52977;44.816;20.538;2022-07-23T11:37:34;99592.13;;;34.04;32.37
66176;BME280;52977;44.816;20.538;2022-07-23T11:40:02;99581.13;;;33.92;31.80
66176;BME280;52977;44.816;20.538;2022-07-23T11:42:29;99582.16;;;34.09;31.55
66176;BME280;52977;44.816;20.538;2022-07-23T11:44:55;99578.38;;;34.12;31.01
66176;BME280;52977;44.816;20.538;2022-07-23T11:47:24;99575.16;;;34.19;32.09
66176;BME280;52977;44.816;20.538;2022-07-23T11:49:57;99584.44;;;34.35;31.94
66176;BME280;52977;44.816;20.538;2022-07-23T11:52:23;99576.63;;;34.45;31.77
66176;BME280;52977;44.816;20.538;2022-07-23T11:55:01;99559.31;;;34.43;31.92
66176;BME280;52977;44.816;20.538;2022-07-23T11:57:36;99572.78;;;34.63;32.41
66176;BME280;52977;44.816;20.538;2022-07-23T12:00:11;99569.81;;;34.72;31.48
66176;BME280;52977;44.816;20.538;2022-07-23T12:02:41;99572.72;;;34.78;31.09
66176;BME280;52977;44.816;20.538;2022-07-23T12:05:11;99583.88;;;34.81;31.32
66176;BME280;52977;44.816;20.538;2022-07-23T12:07:39;99572.53;;;34.81;31.32
66176;BME280;52977;44.816;20.538;2022-07-23T12:10:24;99578.00;;;34.85;30.64
66176;BME280;52977;44.816;20.538;2022-07-23T12:15:40;99564.41;;;34.89;31.57
66176;BME280;52977;44.816;20.538;2022-07-23T12:18:08;99570.88;;;35.10;31.65
66176;BME280;52977;44.816;20.538;2022-07-23T12:20:48;99561.50;;;35.04;31.13
66176;BME280;52977;44.816;20.538;2022-07-23T12:23:17;99558.97;;;35.06;31.36
66176;BME280;52977;44.816;20.538;2022-07-23T12:25:44;99557.47;;;35.11;30.33
66176;BME280;52977;44.816;20.538;2022-07-23T12:30:42;99553.63;;;35.14;31.58
66176;BME280;52977;44.816;20.538;2022-07-23T12:33:10;99549.31;;;35.18;31.22
66176;BME280;52977;44.816;20.538;2022-07-23T12:35:38;99552.72;;;35.22;31.46
66176;BME280;52977;44.816;20.538;2022-07-23T12:38:09;99540.00;;;35.18;31.14
66176;BME280;52977;44.816;20.538;2022-07-23T12:40:46;99540.66;;;35.28;30.09
66176;BME280;52977;44.816;20.538;2022-07-23T12:43:23;99546.00;;;35.40;30.20
66176;BME280;52977;44.816;20.538;2022-07-23T12:45:56;99542.47;;;35.51;30.45
66176;BME280;52977;44.816;20.538;2022-07-23T12:48:27;99541.34;;;35.43;29.36
66176;BME280;52977;44.816;20.538;2022-07-23T12:51:07;99533.75;;;35.55;29.93
66176;BME280;52977;44.816;20.538;2022-07-23T12:56:12;99529.97;;;35.64;27.95
66176;BME280;52977;44.816;20.538;2022-07-23T13:06:44;99521.22;;;35.88;28.10
66176;BME280;52977;44.816;20.538;2022-07-23T13:09:13;99520.41;;;35.87;28.20
66176;BME280;52977;44.816;20.538;2022-07-23T13:11:39;99521.47;;;35.90;27.70
66176;BME280;52977;44.816;20.538;2022-07-23T13:14:05;99524.09;;;35.93;26.89
66176;BME280;52977;44.816;20.538;2022-07-23T13:16:32;99512.69;;;35.88;27.70
66176;BME280;52977;44.816;20.538;2022-07-23T13:18:59;99509.81;;;35.82;27.13
66176;BME280;52977;44.816;20.538;2022-07-23T13:21:27;99506.56;;;35.95;27.35
66176;BME280;52977;44.816;20.538;2022-07-23T13:23:53;99504.53;;;36.01;27.56
66176;BME280;52977;44.816;20.538;2022-07-23T13:26:19;99503.06;;;36.12;27.48
66176;BME280;52977;44.816;20.538;2022-07-23T13:28:44;99496.06;;;36.07;26.86
66176;BME280;52977;44.816;20.538;2022-07-23T13:31:10;99495.81;;;36.10;26.80
66176;BME280;52977;44.816;20.538;2022-07-23T13:33:35;99497.09;;;36.09;26.80
66176;BME280;52977;44.816;20.538;2022-07-23T13:36:01;99492.69;;;36.08;27.54
66176;BME280;52977;44.816;20.538;2022-07-23T13:38:27;99491.59;;;36.00;27.06
66176;BME280;52977;44.816;20.538;2022-07-23T13:40:53;99491.06;;;35.96;27.79
66176;BME280;52977;44.816;20.538;2022-07-23T13:43:20;99487.78;;;36.03;27.29
66176;BME280;52977;44.816;20.538;2022-07-23T13:45:47;99412.34;;;35.65;27.71
66176;BME280;52977;44.816;20.538;2022-07-23T13:48:13;99477.69;;;36.02;26.69
66176;BME280;52977;44.816;20.538;2022-07-23T13:50:40;99487.31;;;36.10;27.00
66176;BME280;52977;44.816;20.538;2022-07-23T13:53:19;99485.25;;;36.11;26.91
66176;BME280;52977;44.816;20.538;2022-07-23T13:55:46;99469.13;;;35.97;26.20